createdAt,value
2022-08-20T00:00:36.995Z,2.40
2022-08-20T00:01:38.992Z,2.45
2022-08-20T00:02:46.908Z,2.70
2022-08-20T00:03:50.270Z,2.55
2022-08-20T00:04:55.450Z,2.50
2022-08-20T00:06:09.235Z,2.65
2022-08-20T00:07:11.328Z,3.28
2022-08-20T00:08:13.847Z,2.28
2022-08-20T00:09:15.905Z,2.72
2022-08-20T00:10:18.400Z,2.50
2022-08-20T00:11:25.666Z,2.50
2022-08-20T00:12:27.754Z,2.40
2022-08-20T00:13:33.925Z,2.70
2022-08-20T00:14:36.880Z,2.47
2022-08-20T00:15:39.163Z,2.25
2022-08-20T00:16:40.997Z,2.53
2022-08-20T00:17:43.213Z,2.60
2022-08-20T00:18:45.490Z,2.30
2022-08-20T00:19:47.360Z,2.38
2022-08-20T00:20:53.053Z,2.15
2022-08-20T00:21:58.080Z,2.10
2022-08-20T00:23:01.924Z,2.30
2022-08-20T00:24:05.308Z,2.28
2022-08-20T00:25:08.542Z,2.10
2022-08-20T00:26:11.258Z,2.05
2022-08-20T00:27:13.056Z,1.98
2022-08-20T00:28:15.929Z,2.38
2022-08-20T00:29:17.801Z,1.92
2022-08-20T00:30:23.240Z,1.95
2022-08-20T00:31:25.428Z,2.15
2022-08-20T00:32:27.271Z,2.33
2022-08-20T00:33:29.147Z,2.08
2022-08-20T00:34:30.949Z,2.00
2022-08-20T00:35:35.745Z,2.30
2022-08-20T00:36:38.167Z,2.35
2022-08-20T00:37:41.936Z,2.08
2022-08-20T00:38:46.765Z,2.00
2022-08-20T00:39:48.708Z,2.53
2022-08-20T00:40:54.565Z,2.40
2022-08-20T00:41:56.520Z,2.15
2022-08-20T00:43:01.074Z,2.30
2022-08-20T00:44:11.475Z,2.15
2022-08-20T00:45:13.934Z,2.70
2022-08-20T00:46:22.368Z,2.00
2022-08-20T00:47:33.165Z,2.50
2022-08-20T00:48:38.103Z,2.00
2022-08-20T00:49:41.281Z,2.75
2022-08-20T00:50:43.443Z,2.38
2022-08-20T00:51:57.739Z,2.03
2022-08-20T00:53:02.848Z,2.40
2022-08-20T00:54:14.080Z,2.38
2022-08-20T00:55:19.900Z,2.70
2022-08-20T00:56:22.362Z,2.53
2022-08-20T00:57:46.099Z,2.50
2022-08-20T00:59:00.966Z,2.60
2022-08-20T01:00:10.552Z,2.72
2022-08-20T01:01:13.593Z,2.42
2022-08-20T01:02:17.804Z,2.63
2022-08-20T01:03:20.606Z,2.60
2022-08-20T01:04:22.532Z,2.78
2022-08-20T01:05:28.644Z,3.05
2022-08-20T01:06:32.320Z,3.00
2022-08-20T01:07:35.104Z,2.80
2022-08-20T01:08:38.031Z,2.80
2022-08-20T01:09:57.674Z,2.60
2022-08-20T01:11:26.622Z,2.92
2022-08-20T01:12:30.157Z,2.92
2022-08-20T01:13:32.284Z,2.75
2022-08-20T01:14:34.181Z,2.83
2022-08-20T01:15:43.035Z,2.50
2022-08-20T01:16:46.379Z,2.80
2022-08-20T01:17:52.899Z,3.17
2022-08-20T01:18:58.961Z,3.35
2022-08-20T01:20:17.872Z,2.75
2022-08-20T01:21:28.575Z,2.95
2022-08-20T01:22:57.558Z,2.70
2022-08-20T01:24:12.702Z,2.85
2022-08-20T01:25:27.047Z,2.90
2022-08-20T01:26:38.147Z,3.13
2022-08-20T01:27:42.548Z,3.28
2022-08-20T01:28:50.730Z,3.30
2022-08-20T01:29:52.976Z,3.10
2022-08-20T01:30:55.359Z,3.10
2022-08-20T01:32:01.606Z,2.75
2022-08-20T01:33:05.053Z,3.20
2022-08-20T01:34:10.894Z,2.80
2022-08-20T01:35:13.003Z,2.70
2022-08-20T01:36:17.566Z,2.53
2022-08-20T01:37:19.380Z,2.72
2022-08-20T01:38:21.627Z,2.45
2022-08-20T01:39:28.172Z,2.97
2022-08-20T01:41:18.045Z,3.08
2022-08-20T01:42:57.604Z,3.20
2022-08-20T01:44:01.576Z,3.05
2022-08-20T01:45:05.428Z,2.83
2022-08-20T01:46:09.039Z,2.80
2022-08-20T01:47:29.353Z,3.05
2022-08-20T01:48:31.259Z,2.70
2022-08-20T01:49:35.369Z,3.15
2022-08-20T01:50:40.396Z,2.65
2022-08-20T01:51:42.704Z,2.90
2022-08-20T01:52:55.803Z,2.90
2022-08-20T01:54:01.799Z,2.70
2022-08-20T01:55:05.105Z,3.10
2022-08-20T01:56:10.989Z,2.50
2022-08-20T01:57:16.126Z,3.15
2022-08-20T01:58:18.035Z,2.45
2022-08-20T01:59:20.285Z,2.60
2022-08-20T02:00:23.324Z,2.80
2022-08-20T02:01:46.453Z,2.88
2022-08-20T02:02:49.554Z,2.75
2022-08-20T02:03:54.075Z,2.70
2022-08-20T02:04:57.314Z,2.50
2022-08-20T02:06:03.358Z,2.70
2022-08-20T02:07:07.332Z,2.80
2022-08-20T02:08:09.205Z,2.40
2022-08-20T02:09:16.046Z,2.67
2022-08-20T02:10:18.800Z,2.80
2022-08-20T02:11:21.287Z,2.50
2022-08-20T02:12:23.122Z,2.50
2022-08-20T02:13:25.213Z,2.80
2022-08-20T02:14:27.933Z,2.63
2022-08-20T02:15:34.894Z,2.50
2022-08-20T02:16:43.329Z,2.72
2022-08-20T02:17:54.467Z,2.38
2022-08-20T02:19:00.143Z,3.00
2022-08-20T02:20:07.694Z,2.92
2022-08-20T02:21:09.732Z,2.70
2022-08-20T02:22:16.362Z,2.85
2022-08-20T02:23:18.867Z,2.30
2022-08-20T02:24:21.614Z,2.85
2022-08-20T02:25:26.488Z,2.72
2022-08-20T02:26:29.472Z,2.22
2022-08-20T02:27:32.254Z,2.40
2022-08-20T02:28:36.755Z,2.63
2022-08-20T02:29:38.940Z,2.47
2022-08-20T02:30:45.275Z,2.20
2022-08-20T02:32:24.491Z,2.83
2022-08-20T02:33:12.252Z,2.40
2022-08-20T02:34:22.799Z,2.75
2022-08-20T02:35:25.199Z,3.10
2022-08-20T02:36:27.635Z,2.83
2022-08-20T02:37:29.730Z,2.78
2022-08-20T02:38:34.916Z,2.50
2022-08-20T02:39:36.771Z,2.50
2022-08-20T02:40:40.383Z,2.53
2022-08-20T02:41:42.362Z,2.33
2022-08-20T02:42:44.494Z,2.45
2022-08-20T02:43:46.313Z,2.45
2022-08-20T02:44:48.143Z,2.22
2022-08-20T02:45:50.107Z,2.30
2022-08-20T02:46:52.010Z,2.13
2022-08-20T02:47:55.790Z,2.17
2022-08-20T02:48:58.193Z,2.60
2022-08-20T02:50:00.160Z,2.08
2022-08-20T02:51:05.261Z,1.90
2022-08-20T02:52:07.212Z,2.45
2022-08-20T02:53:08.982Z,2.20
2022-08-20T02:54:11.869Z,2.40
2022-08-20T02:55:25.340Z,2.10
2022-08-20T02:56:30.397Z,1.90
2022-08-20T02:57:33.299Z,2.00
2022-08-20T02:58:36.034Z,1.75
2022-08-20T02:59:38.948Z,1.77
2022-08-20T03:00:41.202Z,1.85
2022-08-20T03:01:43.070Z,1.90
2022-08-20T03:02:45.897Z,1.95
2022-08-20T03:03:47.671Z,1.85
2022-08-20T03:04:49.632Z,1.85
2022-08-20T03:05:54.018Z,1.63
2022-08-20T03:06:56.453Z,1.95
2022-08-20T03:07:58.471Z,2.00
2022-08-20T03:09:00.990Z,1.70
2022-08-20T03:10:03.035Z,1.90
2022-08-20T03:11:05.958Z,1.40
2022-08-20T03:12:08.777Z,1.92
2022-08-20T03:13:12.591Z,1.80
2022-08-20T03:14:14.468Z,1.95
2022-08-20T03:15:17.401Z,1.90
2022-08-20T03:16:20.199Z,1.60
2022-08-20T03:17:22.032Z,1.90
2022-08-20T03:18:26.244Z,1.65
2022-08-20T03:19:28.090Z,1.70
2022-08-20T03:20:31.507Z,1.50
2022-08-20T03:21:34.268Z,1.50
2022-08-20T03:22:36.292Z,1.65
2022-08-20T03:23:40.433Z,1.80
2022-08-20T03:24:42.483Z,1.52
2022-08-20T03:25:44.547Z,1.60
2022-08-20T03:26:46.677Z,1.60
2022-08-20T03:27:54.400Z,1.33
2022-08-20T03:28:56.698Z,1.67
2022-08-20T03:29:58.739Z,1.40
2022-08-20T03:31:01.578Z,1.30
2022-08-20T03:32:07.557Z,1.42
2022-08-20T03:33:10.386Z,1.20
2022-08-20T03:34:12.213Z,1.30
2022-08-20T03:35:16.852Z,1.48
2022-08-20T03:36:20.750Z,1.50
2022-08-20T03:37:34.589Z,1.33
2022-08-20T03:38:36.539Z,1.60
2022-08-20T03:39:39.134Z,1.48
2022-08-20T03:40:41.346Z,1.38
2022-08-20T03:41:43.175Z,1.30
2022-08-20T03:42:45.440Z,1.40
2022-08-20T03:43:47.245Z,1.10
2022-08-20T03:44:59.093Z,1.10
2022-08-20T03:46:01.255Z,1.20
2022-08-20T03:47:07.621Z,1.30
2022-08-20T03:48:12.271Z,1.00
2022-08-20T03:49:14.215Z,1.45
2022-08-20T03:50:23.113Z,1.52
2022-08-20T03:51:25.558Z,1.13
2022-08-20T03:52:29.390Z,1.08
2022-08-20T03:53:31.893Z,1.45
2022-08-20T03:54:34.117Z,1.38
2022-08-20T03:55:36.350Z,1.30
2022-08-20T03:56:38.244Z,0.98
2022-08-20T03:57:48.261Z,0.98
2022-08-20T03:58:50.081Z,1.25
2022-08-20T03:59:54.901Z,1.00
2022-08-20T04:01:01.171Z,1.20
2022-08-20T04:02:03.154Z,0.95
2022-08-20T04:03:06.606Z,1.30
2022-08-20T04:04:12.258Z,1.15
2022-08-20T04:05:14.896Z,1.00
2022-08-20T04:06:18.505Z,1.10
2022-08-20T04:07:25.683Z,1.08
2022-08-20T04:08:32.407Z,0.90
2022-08-20T04:09:34.265Z,1.23
2022-08-20T04:10:36.878Z,1.38
2022-08-20T04:11:39.360Z,1.02
2022-08-20T04:12:48.733Z,1.08
2022-08-20T04:13:55.053Z,1.10
2022-08-20T04:14:57.120Z,1.02
2022-08-20T04:16:03.613Z,1.20
2022-08-20T04:17:08.120Z,1.13
2022-08-20T04:18:11.986Z,1.30
2022-08-20T04:19:14.539Z,1.58
2022-08-20T04:20:23.302Z,1.02
2022-08-20T04:21:25.325Z,1.10
2022-08-20T04:22:31.492Z,1.25
2022-08-20T04:23:33.360Z,1.25
2022-08-20T04:24:35.433Z,1.13
2022-08-20T04:25:42.479Z,1.08
2022-08-20T04:26:45.120Z,1.25
2022-08-20T04:27:46.956Z,1.00
2022-08-20T04:28:50.076Z,1.15
2022-08-20T04:29:51.958Z,1.30
2022-08-20T04:30:55.779Z,1.02
2022-08-20T04:31:57.550Z,1.17
2022-08-20T04:32:59.843Z,1.20
2022-08-20T04:34:03.894Z,1.05
2022-08-20T04:35:07.838Z,1.30
2022-08-20T04:36:10.045Z,1.05
2022-08-20T04:37:16.682Z,1.20
2022-08-20T04:38:21.292Z,1.20
2022-08-20T04:39:23.719Z,1.20
2022-08-20T04:40:44.440Z,1.58
2022-08-20T04:41:46.321Z,1.20
2022-08-20T04:42:48.112Z,1.58
2022-08-20T04:43:56.522Z,1.10
2022-08-20T04:44:58.590Z,1.50
2022-08-20T04:46:06.008Z,1.05
2022-08-20T04:47:08.119Z,1.25
2022-08-20T04:48:14.707Z,1.25
2022-08-20T04:49:17.094Z,1.20
2022-08-20T04:50:19.997Z,1.00
2022-08-20T04:51:23.243Z,1.15
2022-08-20T04:52:28.532Z,0.90
2022-08-20T04:53:30.426Z,1.52
2022-08-20T04:54:32.673Z,1.02
2022-08-20T04:55:35.688Z,1.75
2022-08-20T04:56:40.294Z,1.30
2022-08-20T04:57:42.381Z,1.20
2022-08-20T04:58:49.071Z,1.23
2022-08-20T04:59:52.707Z,1.10
2022-08-20T05:01:04.137Z,1.10
2022-08-20T05:02:06.147Z,1.20
2022-08-20T05:03:08.008Z,1.30
2022-08-20T05:04:09.851Z,1.23
2022-08-20T05:05:13.277Z,1.42
2022-08-20T05:06:16.377Z,1.50
2022-08-20T05:07:21.788Z,1.25
2022-08-20T05:08:25.740Z,1.00
2022-08-20T05:09:27.546Z,1.20
2022-08-20T05:10:30.077Z,1.40
2022-08-20T05:11:35.884Z,1.50
2022-08-20T05:12:43.831Z,1.20
2022-08-20T05:13:58.953Z,1.40
2022-08-20T05:15:01.016Z,1.35
2022-08-20T05:16:05.063Z,1.55
2022-08-20T05:17:07.027Z,1.30
2022-08-20T05:18:09.505Z,1.08
2022-08-20T05:19:13.066Z,1.30
2022-08-20T05:20:19.211Z,1.60
2022-08-20T05:21:21.472Z,1.67
2022-08-20T05:22:24.694Z,1.33
2022-08-20T05:23:35.488Z,1.38
2022-08-20T05:24:37.271Z,1.42
2022-08-20T05:25:40.415Z,1.50
2022-08-20T05:26:42.277Z,1.65
2022-08-20T05:27:47.743Z,1.48
2022-08-20T05:28:57.364Z,1.70
2022-08-20T05:30:05.707Z,1.73
2022-08-20T05:31:09.595Z,1.40
2022-08-20T05:32:12.599Z,1.42
2022-08-20T05:33:18.932Z,1.20
2022-08-20T05:34:20.703Z,1.90
2022-08-20T05:35:22.570Z,1.63
2022-08-20T05:36:24.525Z,1.48
2022-08-20T05:37:26.489Z,1.60
2022-08-20T05:38:29.171Z,1.73
2022-08-20T05:39:35.417Z,1.52
2022-08-20T05:40:40.911Z,1.75
2022-08-20T05:41:42.741Z,1.60
2022-08-20T05:42:44.561Z,1.50
2022-08-20T05:43:46.478Z,2.13
2022-08-20T05:44:53.401Z,1.83
2022-08-20T05:45:58.541Z,2.03
2022-08-20T05:47:00.395Z,1.92
2022-08-20T05:48:11.583Z,2.05
2022-08-20T05:49:19.600Z,2.00
2022-08-20T05:50:23.390Z,1.77
2022-08-20T05:51:25.438Z,1.70
2022-08-20T05:52:27.252Z,1.73
2022-08-20T05:53:29.073Z,1.92
2022-08-20T05:54:31.325Z,1.98
2022-08-20T05:55:33.678Z,2.00
2022-08-20T05:56:36.077Z,2.05
2022-08-20T05:57:37.887Z,2.10
2022-08-20T05:58:40.209Z,2.28
2022-08-20T05:59:42.050Z,1.90
2022-08-20T06:00:43.846Z,2.08
2022-08-20T06:01:45.722Z,2.58
2022-08-20T06:03:06.216Z,2.30
2022-08-20T06:04:28.422Z,2.10
2022-08-20T06:05:30.397Z,2.30
2022-08-20T06:06:46.279Z,2.30
2022-08-20T06:07:50.785Z,2.40
2022-08-20T06:08:56.648Z,1.92
2022-08-20T06:10:00.296Z,2.50
2022-08-20T06:11:03.028Z,2.30
2022-08-20T06:12:07.862Z,2.50
2022-08-20T06:13:10.029Z,2.47
2022-08-20T06:14:16.778Z,2.45
2022-08-20T06:15:19.210Z,2.35
2022-08-20T06:16:21.183Z,2.50
2022-08-20T06:17:23.076Z,2.05
2022-08-20T06:18:28.650Z,2.47
2022-08-20T06:19:32.217Z,2.50
2022-08-20T06:20:38.674Z,2.22
2022-08-20T06:21:41.179Z,2.50
2022-08-20T06:22:43.347Z,2.50
2022-08-20T06:23:58.173Z,2.47
2022-08-20T06:25:01.878Z,2.45
2022-08-20T06:26:09.231Z,2.55
2022-08-20T06:27:14.888Z,2.35
2022-08-20T06:28:17.738Z,2.38
2022-08-20T06:29:19.976Z,2.35
2022-08-20T06:30:22.179Z,2.55
2022-08-20T06:31:24.480Z,2.25
2022-08-20T06:32:32.061Z,3.08
2022-08-20T06:33:34.692Z,2.35
2022-08-20T06:34:36.912Z,2.60
2022-08-20T06:35:38.718Z,2.50
2022-08-20T06:36:40.811Z,2.63
2022-08-20T06:37:43.237Z,2.78
2022-08-20T06:38:46.499Z,2.20
2022-08-20T06:39:48.381Z,2.40
2022-08-20T06:40:50.309Z,2.80
2022-08-20T06:41:52.183Z,2.30
2022-08-20T06:42:56.723Z,2.78
2022-08-20T06:43:58.622Z,2.60
2022-08-20T06:45:05.115Z,2.75
2022-08-20T06:46:07.119Z,2.38
2022-08-20T06:47:09.496Z,2.67
2022-08-20T06:48:15.227Z,2.55
2022-08-20T06:49:17.239Z,2.30
2022-08-20T06:50:26.865Z,2.67
2022-08-20T06:51:29.395Z,2.65
2022-08-20T06:52:52.916Z,2.20
2022-08-20T06:53:53.318Z,2.17
2022-08-20T06:54:55.114Z,2.60
2022-08-20T06:55:58.991Z,2.78
2022-08-20T06:57:02.030Z,2.60
2022-08-20T06:58:08.317Z,2.92
2022-08-20T06:59:30.465Z,2.58
2022-08-20T07:00:35.160Z,2.55
2022-08-20T07:01:37.103Z,2.97
2022-08-20T07:02:39.177Z,2.50
2022-08-20T07:03:55.424Z,3.05
2022-08-20T07:04:57.898Z,3.10
2022-08-20T07:05:59.751Z,3.00
2022-08-20T07:07:01.592Z,3.00
2022-08-20T07:08:04.931Z,2.65
2022-08-20T07:09:06.726Z,2.50
2022-08-20T07:10:10.838Z,3.00
2022-08-20T07:11:12.833Z,2.80
2022-08-20T07:12:14.726Z,2.92
2022-08-20T07:13:16.616Z,2.83
2022-08-20T07:14:19.364Z,2.65
2022-08-20T07:15:23.716Z,2.80
2022-08-20T07:16:26.268Z,2.60
2022-08-20T07:17:28.171Z,2.75
2022-08-20T07:18:30.011Z,3.00
2022-08-20T07:19:32.193Z,2.97
2022-08-20T07:20:36.870Z,3.28
2022-08-20T07:21:39.643Z,2.90
2022-08-20T07:22:42.342Z,3.35
2022-08-20T07:23:44.360Z,3.10
2022-08-20T07:24:49.154Z,3.38
2022-08-20T07:25:51.405Z,2.95
2022-08-20T07:26:53.253Z,3.15
2022-08-20T07:28:06.363Z,3.00
2022-08-20T07:29:08.229Z,3.08
2022-08-20T07:30:55.786Z,2.90
2022-08-20T07:32:16.566Z,3.50
2022-08-20T07:33:23.698Z,3.72
2022-08-20T07:34:25.476Z,3.33
2022-08-20T07:35:27.413Z,3.03
2022-08-20T07:36:29.640Z,3.42
2022-08-20T07:37:32.631Z,3.40
2022-08-20T07:38:35.389Z,3.22
2022-08-20T07:39:37.230Z,4.13
2022-08-20T07:40:43.432Z,3.50
2022-08-20T07:41:56.674Z,3.45
2022-08-20T07:43:01.065Z,3.50
2022-08-20T07:44:03.084Z,3.70
2022-08-20T07:45:10.911Z,3.70
2022-08-20T07:46:20.848Z,3.90
2022-08-20T07:47:23.490Z,3.95
2022-08-20T07:48:32.136Z,3.35
2022-08-20T07:49:38.500Z,3.50
2022-08-20T07:50:43.039Z,3.70
2022-08-20T07:51:44.916Z,3.30
2022-08-20T07:52:47.696Z,4.07
2022-08-20T07:53:51.749Z,4.07
2022-08-20T07:54:53.646Z,3.63
2022-08-20T07:55:59.253Z,3.67
2022-08-20T07:57:04.911Z,3.70
2022-08-20T07:58:10.341Z,3.90
2022-08-20T07:59:14.012Z,3.65
2022-08-20T08:00:17.621Z,3.90
2022-08-20T08:01:25.767Z,4.32
2022-08-20T08:02:28.308Z,3.83
2022-08-20T08:03:39.687Z,3.67
2022-08-20T08:04:51.347Z,3.85
2022-08-20T08:05:53.949Z,3.90
2022-08-20T08:06:59.963Z,3.72
2022-08-20T08:08:07.162Z,3.90
2022-08-20T08:09:13.419Z,3.70
2022-08-20T08:10:21.430Z,4.00
2022-08-20T08:11:23.437Z,3.90
2022-08-20T08:12:35.044Z,3.58
2022-08-20T08:13:40.226Z,3.50
2022-08-20T08:14:45.051Z,3.50
2022-08-20T08:15:49.923Z,3.70
2022-08-20T08:16:55.375Z,3.72
2022-08-20T08:18:02.233Z,3.95
2022-08-20T08:19:09.457Z,4.05
2022-08-20T08:20:15.198Z,3.85
2022-08-20T08:21:22.544Z,4.03
2022-08-20T08:22:24.832Z,3.95
2022-08-20T08:23:31.806Z,4.05
2022-08-20T08:24:34.721Z,3.95
2022-08-20T08:25:36.591Z,3.55
2022-08-20T08:26:38.597Z,3.70
2022-08-20T08:27:41.084Z,3.50
2022-08-20T08:28:44.590Z,3.33
2022-08-20T08:29:46.602Z,4.10
2022-08-20T08:30:49.501Z,3.70
2022-08-20T08:31:51.353Z,4.38
2022-08-20T08:33:11.384Z,3.60
2022-08-20T08:34:13.571Z,4.38
2022-08-20T08:35:16.512Z,3.42
2022-08-20T08:36:18.348Z,3.83
2022-08-20T08:37:20.360Z,4.70
2022-08-20T08:38:23.268Z,4.18
2022-08-20T08:39:25.624Z,4.20
2022-08-20T08:40:35.454Z,4.03
2022-08-20T08:41:49.594Z,4.30
2022-08-20T08:42:58.467Z,3.83
2022-08-20T08:44:14.662Z,4.10
2022-08-20T08:45:19.018Z,3.80
2022-08-20T08:46:26.033Z,4.10
2022-08-20T08:47:32.855Z,3.70
2022-08-20T08:48:45.640Z,3.67
2022-08-20T08:49:48.132Z,3.67
2022-08-20T08:50:53.106Z,4.10
2022-08-20T08:52:04.558Z,4.10
2022-08-20T08:53:08.618Z,3.90
2022-08-20T08:54:19.679Z,3.90
2022-08-20T08:55:23.227Z,3.83
2022-08-20T08:56:28.599Z,4.05
2022-08-20T08:57:31.824Z,3.40
2022-08-20T08:58:34.706Z,4.13
2022-08-20T08:59:58.140Z,3.45
2022-08-20T09:01:01.733Z,4.10
2022-08-20T09:02:07.303Z,3.72
2022-08-20T09:03:17.528Z,3.90
2022-08-20T09:04:22.067Z,3.10
2022-08-20T09:05:32.060Z,3.30
2022-08-20T09:06:34.040Z,3.80
2022-08-20T09:07:35.872Z,3.30
2022-08-20T09:09:01.150Z,3.15
2022-08-20T09:10:04.690Z,3.60
2022-08-20T09:11:08.428Z,3.30
2022-08-20T09:12:18.948Z,3.70
2022-08-20T09:13:20.937Z,3.72
2022-08-20T09:14:25.083Z,3.55
2022-08-20T09:15:27.331Z,3.38
2022-08-20T09:16:33.116Z,3.67
2022-08-20T09:17:51.163Z,3.30
2022-08-20T09:18:52.964Z,3.67
2022-08-20T09:19:54.804Z,3.20
2022-08-20T09:20:56.610Z,3.65
2022-08-20T09:21:58.420Z,3.55
2022-08-20T09:23:00.317Z,3.72
2022-08-20T09:24:02.264Z,3.40
2022-08-20T09:25:05.432Z,3.20
2022-08-20T09:26:07.414Z,3.08
2022-08-20T09:27:10.185Z,3.10
2022-08-20T09:28:12.070Z,3.67
2022-08-20T09:29:15.985Z,3.47
2022-08-20T09:30:19.035Z,3.70
2022-08-20T09:31:24.486Z,3.30
2022-08-20T09:32:26.569Z,3.88
2022-08-20T09:33:28.462Z,4.03
2022-08-20T09:34:30.289Z,3.67
2022-08-20T09:35:32.129Z,3.72
2022-08-20T09:36:33.996Z,3.40
2022-08-20T09:37:37.703Z,3.92
2022-08-20T09:38:39.784Z,4.10
2022-08-20T09:39:41.832Z,3.72
2022-08-20T09:40:44.613Z,3.50
2022-08-20T09:41:46.433Z,3.88
2022-08-20T09:42:49.131Z,3.72
2022-08-20T09:43:51.054Z,3.53
2022-08-20T09:44:53.243Z,3.80
2022-08-20T09:45:55.135Z,3.45
2022-08-20T09:46:56.946Z,3.78
2022-08-20T09:47:59.129Z,3.80
2022-08-20T09:49:02.032Z,3.85
2022-08-20T09:50:04.317Z,3.80
2022-08-20T09:51:06.381Z,3.33
2022-08-20T09:52:10.623Z,3.63
2022-08-20T09:53:13.551Z,3.63
2022-08-20T09:54:15.444Z,3.72
2022-08-20T09:55:23.104Z,3.83
2022-08-20T09:56:25.358Z,3.30
2022-08-20T09:57:28.385Z,3.50
2022-08-20T09:58:32.864Z,3.17
2022-08-20T09:59:35.934Z,3.78
2022-08-20T10:00:37.741Z,3.60
2022-08-20T10:01:39.773Z,3.47
2022-08-20T10:02:42.299Z,3.78
2022-08-20T10:03:51.108Z,3.72
2022-08-20T10:04:52.970Z,3.78
2022-08-20T10:05:54.705Z,3.60
2022-08-20T10:06:57.027Z,3.92
2022-08-20T10:07:59.000Z,3.53
2022-08-20T10:09:00.813Z,3.83
2022-08-20T10:10:03.082Z,3.80
2022-08-20T10:11:04.937Z,3.40
2022-08-20T10:12:07.210Z,3.50
2022-08-20T10:13:08.942Z,3.65
2022-08-20T10:14:15.015Z,3.47
2022-08-20T10:15:17.102Z,4.03
2022-08-20T10:16:18.875Z,4.00
2022-08-20T10:17:20.598Z,4.00
2022-08-20T10:18:22.478Z,4.10
2022-08-20T10:19:24.839Z,3.85
2022-08-20T10:20:26.827Z,3.70
2022-08-20T10:21:32.541Z,3.67
2022-08-20T10:22:36.503Z,3.78
2022-08-20T10:23:38.368Z,4.10
2022-08-20T10:24:40.139Z,3.75
2022-08-20T10:25:42.195Z,4.32
2022-08-20T10:26:44.642Z,4.03
2022-08-20T10:27:46.497Z,3.88
2022-08-20T10:28:48.321Z,3.80
2022-08-20T10:29:50.051Z,3.83
2022-08-20T10:30:51.837Z,3.78
2022-08-20T10:31:55.040Z,3.60
2022-08-20T10:32:56.793Z,3.70
2022-08-20T10:33:58.627Z,3.65
2022-08-20T10:35:00.727Z,3.55
2022-08-20T10:36:16.418Z,3.80
2022-08-20T10:37:22.041Z,3.90
2022-08-20T10:38:23.795Z,3.60
2022-08-20T10:39:25.703Z,3.80
2022-08-20T10:40:27.521Z,3.80
2022-08-20T10:41:29.382Z,3.97
2022-08-20T10:42:31.185Z,3.28
2022-08-20T10:43:33.096Z,3.97
2022-08-20T10:44:35.116Z,3.78
2022-08-20T10:45:36.963Z,3.72
2022-08-20T10:46:42.160Z,3.67
2022-08-20T10:47:44.395Z,3.55
2022-08-20T10:48:46.303Z,4.13
2022-08-20T10:49:52.937Z,4.07
2022-08-20T10:50:54.799Z,4.25
2022-08-20T10:51:56.603Z,4.03
2022-08-20T10:52:59.150Z,4.28
2022-08-20T10:54:01.054Z,3.67
2022-08-20T10:55:04.892Z,4.25
2022-08-20T10:56:07.095Z,4.20
2022-08-20T10:57:14.372Z,4.32
2022-08-20T10:58:16.127Z,4.00
2022-08-20T10:59:17.967Z,4.43
2022-08-20T11:00:19.916Z,4.07
2022-08-20T11:01:31.574Z,4.05
2022-08-20T11:02:36.219Z,4.25
2022-08-20T11:03:38.103Z,4.40
2022-08-20T11:04:41.139Z,4.20
2022-08-20T11:05:43.234Z,4.53
2022-08-20T11:06:45.144Z,4.40
2022-08-20T11:07:55.565Z,4.45
2022-08-20T11:08:58.192Z,4.78
2022-08-20T11:10:00.051Z,4.80
2022-08-20T11:11:02.083Z,4.38
2022-08-20T11:12:04.407Z,4.47
2022-08-20T11:13:08.344Z,4.90
2022-08-20T11:14:10.115Z,4.90
2022-08-20T11:15:12.079Z,4.32
2022-08-20T11:16:14.529Z,4.97
2022-08-20T11:17:25.154Z,5.10
2022-08-20T11:18:27.265Z,4.80
2022-08-20T11:19:29.575Z,4.63
2022-08-20T11:20:32.152Z,5.13
2022-08-20T11:21:33.919Z,4.80
2022-08-20T11:22:35.719Z,5.40
2022-08-20T11:23:37.462Z,4.90
2022-08-20T11:24:39.311Z,5.18
2022-08-20T11:25:41.151Z,5.13
2022-08-20T11:26:44.008Z,5.60
2022-08-20T11:27:48.864Z,5.25
2022-08-20T11:28:50.711Z,4.60
2022-08-20T11:29:53.363Z,5.32
2022-08-20T11:30:55.114Z,5.35
2022-08-20T11:31:56.918Z,5.28
2022-08-20T11:33:00.471Z,5.38
2022-08-20T11:34:02.463Z,4.97
2022-08-20T11:35:24.445Z,5.03
2022-08-20T11:36:26.624Z,5.20
2022-08-20T11:37:28.715Z,5.57
2022-08-20T11:38:30.442Z,5.22
2022-08-20T11:39:32.198Z,6.13
2022-08-20T11:40:33.943Z,5.30
2022-08-20T11:41:35.678Z,5.50
2022-08-20T11:42:53.240Z,5.60
2022-08-20T11:44:21.010Z,5.18
2022-08-20T11:45:22.028Z,5.13
2022-08-20T11:46:28.356Z,4.90
2022-08-20T11:47:32.703Z,4.78
2022-08-20T11:48:34.463Z,5.10
2022-08-20T11:49:37.758Z,4.78
2022-08-20T11:50:39.578Z,4.70
2022-08-20T11:51:49.838Z,5.03
2022-08-20T11:52:52.048Z,4.32
2022-08-20T11:53:53.802Z,4.40
2022-08-20T11:54:56.288Z,4.70
2022-08-20T11:55:59.565Z,5.10
2022-08-20T11:57:01.424Z,4.32
2022-08-20T11:58:03.194Z,4.72
2022-08-20T11:59:05.042Z,4.47
2022-08-20T12:00:12.632Z,4.30
2022-08-20T12:01:14.623Z,4.70
2022-08-20T12:02:16.655Z,4.45
2022-08-20T12:03:18.611Z,4.70
2022-08-20T12:04:20.844Z,4.53
2022-08-20T12:05:27.500Z,4.40
2022-08-20T12:06:29.277Z,4.40
2022-08-20T12:07:31.091Z,4.80
2022-08-20T12:08:32.871Z,4.22
2022-08-20T12:09:34.728Z,4.00
2022-08-20T12:10:38.758Z,4.43
2022-08-20T12:11:40.527Z,4.07
2022-08-20T12:12:42.583Z,4.35
2022-08-20T12:13:47.911Z,4.50
2022-08-20T12:14:55.690Z,4.75
2022-08-20T12:15:57.729Z,4.03
2022-08-20T12:17:08.503Z,4.50
2022-08-20T12:18:10.772Z,4.47
2022-08-20T12:19:12.531Z,4.50
2022-08-20T12:20:15.762Z,4.60
2022-08-20T12:21:17.642Z,4.57
2022-08-20T12:22:24.643Z,4.30
2022-08-20T12:23:27.410Z,4.22
2022-08-20T12:24:29.170Z,4.47
2022-08-20T12:25:32.791Z,4.65
2022-08-20T12:26:34.608Z,4.60
2022-08-20T12:27:38.022Z,4.40
2022-08-20T12:28:39.804Z,4.25
2022-08-20T12:29:43.267Z,4.07
2022-08-20T12:30:45.069Z,4.43
2022-08-20T12:31:46.839Z,4.63
2022-08-20T12:32:49.046Z,4.50
2022-08-20T12:33:50.807Z,4.35
2022-08-20T12:34:53.107Z,4.50
2022-08-20T12:35:54.943Z,4.25
2022-08-20T12:37:01.623Z,4.47
2022-08-20T12:38:04.999Z,4.10
2022-08-20T12:39:07.906Z,4.25
2022-08-20T12:40:14.907Z,4.53
2022-08-20T12:41:16.796Z,4.20
2022-08-20T12:42:19.143Z,4.10
2022-08-20T12:43:24.818Z,4.28
2022-08-20T12:44:27.009Z,4.30
2022-08-20T12:45:29.902Z,4.00
2022-08-20T12:46:31.645Z,3.80
2022-08-20T12:47:39.732Z,4.13
2022-08-20T12:48:41.481Z,3.92
2022-08-20T12:49:46.622Z,4.07
2022-08-20T12:50:50.300Z,4.03
2022-08-20T12:51:52.173Z,3.90
2022-08-20T12:52:54.078Z,4.03
2022-08-20T12:53:55.827Z,3.85
2022-08-20T12:54:58.829Z,4.03
2022-08-20T12:56:02.579Z,3.83
2022-08-20T12:57:05.061Z,4.30
2022-08-20T12:58:11.007Z,4.45
2022-08-20T12:59:12.767Z,3.80
2022-08-20T13:00:20.746Z,4.13
2022-08-20T13:01:23.116Z,3.97
2022-08-20T13:02:24.946Z,4.13
2022-08-20T13:03:26.799Z,3.85
2022-08-20T13:04:33.367Z,3.78
2022-08-20T13:05:36.399Z,4.05
2022-08-20T13:06:38.187Z,3.85
2022-08-20T13:07:40.946Z,3.60
2022-08-20T13:08:42.762Z,4.25
2022-08-20T13:09:44.717Z,3.92
2022-08-20T13:10:46.964Z,4.25
2022-08-20T13:11:49.339Z,4.07
2022-08-20T13:12:51.680Z,4.03
2022-08-20T13:13:53.547Z,3.65
2022-08-20T13:14:55.311Z,3.65
2022-08-20T13:15:57.131Z,3.60
2022-08-20T13:17:00.995Z,3.78
2022-08-20T13:18:05.038Z,3.28
2022-08-20T13:19:06.827Z,3.83
2022-08-20T13:20:12.862Z,4.05
2022-08-20T13:21:15.923Z,3.55
2022-08-20T13:22:17.887Z,3.63
2022-08-20T13:23:19.639Z,3.90
2022-08-20T13:24:22.251Z,4.10
2022-08-20T13:25:24.996Z,3.90
2022-08-20T13:26:27.824Z,3.80
2022-08-20T13:27:29.675Z,4.00
2022-08-20T13:28:31.777Z,4.30
2022-08-20T13:29:33.868Z,4.35
2022-08-20T13:30:38.791Z,3.97
2022-08-20T13:31:41.750Z,3.67
2022-08-20T13:32:44.314Z,4.22
2022-08-20T13:33:46.098Z,3.70
2022-08-20T13:34:48.046Z,4.20
2022-08-20T13:35:50.014Z,3.67
2022-08-20T13:36:51.959Z,4.00
2022-08-20T13:37:53.769Z,3.70
2022-08-20T13:38:55.574Z,4.13
2022-08-20T13:39:59.040Z,3.75
2022-08-20T13:41:00.892Z,3.90
2022-08-20T13:42:02.656Z,3.90
2022-08-20T13:43:07.071Z,3.92
2022-08-20T13:44:10.416Z,4.10
2022-08-20T13:45:12.586Z,3.60
2022-08-20T13:46:14.366Z,4.03
2022-08-20T13:47:22.453Z,3.85
2022-08-20T13:48:24.228Z,3.95
2022-08-20T13:49:26.074Z,3.85
2022-08-20T13:50:32.252Z,3.53
2022-08-20T13:51:34.024Z,3.80
2022-08-20T13:52:37.287Z,3.85
2022-08-20T13:53:39.051Z,3.75
2022-08-20T13:54:40.858Z,3.60
2022-08-20T13:55:44.143Z,3.97
2022-08-20T13:56:45.942Z,3.60
2022-08-20T13:57:48.530Z,4.18
2022-08-20T13:58:50.263Z,3.58
2022-08-20T13:59:57.530Z,4.03
2022-08-20T14:00:59.330Z,3.95
2022-08-20T14:02:05.217Z,3.88
2022-08-20T14:03:08.859Z,3.58
2022-08-20T14:04:10.791Z,3.80
2022-08-20T14:05:17.169Z,3.88
2022-08-20T14:06:21.131Z,3.60
2022-08-20T14:07:30.162Z,3.63
2022-08-20T14:08:33.904Z,3.45
2022-08-20T14:09:38.820Z,3.30
2022-08-20T14:10:42.773Z,3.53
2022-08-20T14:11:44.716Z,3.38
2022-08-20T14:12:46.821Z,3.20
2022-08-20T14:13:48.567Z,3.10
2022-08-20T14:14:52.462Z,3.05
2022-08-20T14:15:56.431Z,3.30
2022-08-20T14:16:58.187Z,3.05
2022-08-20T14:18:00.719Z,3.40